sensor_id;sensor_type;location;lat;lon;timestamp;P1;durP1;ratioP1;P2;durP2;ratioP2
12302;SDS011;6214;48.012;7.862;2023-01-23T00:01:30;22.10;;;12.15;;
12302;SDS011;6214;48.012;7.862;2023-01-23T00:03:59;22.63;;;11.70;;
12302;SDS011;6214;48.012;7.862;2023-01-23T00:06:26;21.98;;;11.70;;
12302;SDS011;6214;48.012;7.862;2023-01-23T00:08:53;22.80;;;12.30;;
12302;SDS011;6214;48.012;7.862;2023-01-23T00:11:25;22.77;;;11.93;;
12302;SDS011;6214;48.012;7.862;2023-01-23T00:13:54;22.15;;;11.90;;
12302;SDS011;6214;48.012;7.862;2023-01-23T00:16:23;21.48;;;11.18;;
12302;SDS011;6214;48.012;7.862;2023-01-23T00:18:51;22.00;;;11.60;;
12302;SDS011;6214;48.012;7.862;2023-01-23T00:21:20;21.40;;;11.30;;
12302;SDS011;6214;48.012;7.862;2023-01-23T00:23:50;21.63;;;11.25;;
12302;SDS011;6214;48.012;7.862;2023-01-23T00:26:20;23.30;;;12.30;;
12302;SDS011;6214;48.012;7.862;2023-01-23T00:28:51;22.23;;;12.45;;
12302;SDS011;6214;48.012;7.862;2023-01-23T00:31:20;21.83;;;12.63;;
12302;SDS011;6214;48.012;7.862;2023-01-23T00:33:54;22.93;;;13.40;;
12302;SDS011;6214;48.012;7.862;2023-01-23T00:36:22;23.58;;;13.27;;
12302;SDS011;6214;48.012;7.862;2023-01-23T00:38:50;24.17;;;13.80;;
12302;SDS011;6214;48.012;7.862;2023-01-23T00:41:17;24.38;;;14.15;;
12302;SDS011;6214;48.012;7.862;2023-01-23T00:43:44;22.97;;;12.90;;
12302;SDS011;6214;48.012;7.862;2023-01-23T00:46:12;23.20;;;12.90;;
12302;SDS011;6214;48.012;7.862;2023-01-23T00:48:40;23.42;;;12.40;;
12302;SDS011;6214;48.012;7.862;2023-01-23T00:51:07;22.98;;;12.75;;
12302;SDS011;6214;48.012;7.862;2023-01-23T00:53:34;22.70;;;13.32;;
12302;SDS011;6214;48.012;7.862;2023-01-23T00:56:01;23.17;;;13.33;;
12302;SDS011;6214;48.012;7.862;2023-01-23T00:58:28;22.30;;;12.00;;
12302;SDS011;6214;48.012;7.862;2023-01-23T01:00:55;21.95;;;11.85;;
12302;SDS011;6214;48.012;7.862;2023-01-23T01:03:22;22.97;;;12.30;;
12302;SDS011;6214;48.012;7.862;2023-01-23T01:05:50;23.50;;;13.15;;
12302;SDS011;6214;48.012;7.862;2023-01-23T01:08:17;22.23;;;10.85;;
12302;SDS011;6214;48.012;7.862;2023-01-23T01:10:44;21.23;;;10.75;;
12302;SDS011;6214;48.012;7.862;2023-01-23T01:13:11;20.95;;;10.40;;
12302;SDS011;6214;48.012;7.862;2023-01-23T01:15:38;20.10;;;9.55;;
12302;SDS011;6214;48.012;7.862;2023-01-23T01:18:05;20.00;;;9.50;;
12302;SDS011;6214;48.012;7.862;2023-01-23T01:20:32;19.80;;;9.18;;
12302;SDS011;6214;48.012;7.862;2023-01-23T01:22:59;19.45;;;8.65;;
12302;SDS011;6214;48.012;7.862;2023-01-23T01:25:26;18.58;;;7.93;;
12302;SDS011;6214;48.012;7.862;2023-01-23T01:27:53;18.50;;;7.80;;
12302;SDS011;6214;48.012;7.862;2023-01-23T01:30:21;18.38;;;7.95;;
12302;SDS011;6214;48.012;7.862;2023-01-23T01:32:50;17.88;;;7.10;;
12302;SDS011;6214;48.012;7.862;2023-01-23T01:35:18;17.05;;;6.70;;
12302;SDS011;6214;48.012;7.862;2023-01-23T01:37:46;17.70;;;7.13;;
12302;SDS011;6214;48.012;7.862;2023-01-23T01:40:14;17.75;;;6.70;;
12302;SDS011;6214;48.012;7.862;2023-01-23T01:42:46;19.58;;;8.10;;
12302;SDS011;6214;48.012;7.862;2023-01-23T01:48:20;19.60;;;9.63;;
12302;SDS011;6214;48.012;7.862;2023-01-23T01:50:52;19.60;;;8.98;;
12302;SDS011;6214;48.012;7.862;2023-01-23T01:53:20;19.60;;;9.10;;
12302;SDS011;6214;48.012;7.862;2023-01-23T01:55:51;20.58;;;9.40;;
12302;SDS011;6214;48.012;7.862;2023-01-23T01:58:18;19.83;;;9.27;;
12302;SDS011;6214;48.012;7.862;2023-01-23T02:00:45;20.27;;;9.80;;
12302;SDS011;6214;48.012;7.862;2023-01-23T02:03:12;19.50;;;9.30;;
12302;SDS011;6214;48.012;7.862;2023-01-23T02:05:43;19.00;;;8.27;;
12302;SDS011;6214;48.012;7.862;2023-01-23T02:10:44;18.40;;;7.90;;
12302;SDS011;6214;48.012;7.862;2023-01-23T02:13:18;18.10;;;7.40;;
12302;SDS011;6214;48.012;7.862;2023-01-23T02:16:00;18.50;;;7.40;;
12302;SDS011;6214;48.012;7.862;2023-01-23T02:18:32;17.50;;;6.75;;
12302;SDS011;6214;48.012;7.862;2023-01-23T02:21:03;17.65;;;6.93;;
12302;SDS011;6214;48.012;7.862;2023-01-23T02:26:17;16.80;;;6.22;;
12302;SDS011;6214;48.012;7.862;2023-01-23T02:28:51;16.77;;;6.00;;
12302;SDS011;6214;48.012;7.862;2023-01-23T02:31:18;17.70;;;6.60;;
12302;SDS011;6214;48.012;7.862;2023-01-23T02:33:56;16.67;;;6.00;;
12302;SDS011;6214;48.012;7.862;2023-01-23T02:36:25;16.60;;;5.95;;
12302;SDS011;6214;48.012;7.862;2023-01-23T02:38:57;16.55;;;5.72;;
12302;SDS011;6214;48.012;7.862;2023-01-23T02:41:39;16.67;;;5.72;;
12302;SDS011;6214;48.012;7.862;2023-01-23T02:44:24;17.00;;;6.07;;
12302;SDS011;6214;48.012;7.862;2023-01-23T02:46:54;16.70;;;6.05;;
12302;SDS011;6214;48.012;7.862;2023-01-23T02:49:23;16.80;;;5.68;;
12302;SDS011;6214;48.012;7.862;2023-01-23T02:51:50;16.92;;;5.65;;
12302;SDS011;6214;48.012;7.862;2023-01-23T02:54:19;17.13;;;6.25;;
12302;SDS011;6214;48.012;7.862;2023-01-23T02:56:47;17.02;;;6.20;;
12302;SDS011;6214;48.012;7.862;2023-01-23T02:59:15;22.58;;;10.02;;
12302;SDS011;6214;48.012;7.862;2023-01-23T03:02:00;20.50;;;8.43;;
12302;SDS011;6214;48.012;7.862;2023-01-23T03:04:27;18.90;;;7.10;;
12302;SDS011;6214;48.012;7.862;2023-01-23T03:06:54;18.33;;;7.28;;
12302;SDS011;6214;48.012;7.862;2023-01-23T03:09:21;17.90;;;6.95;;
12302;SDS011;6214;48.012;7.862;2023-01-23T03:11:48;18.48;;;7.15;;
12302;SDS011;6214;48.012;7.862;2023-01-23T03:14:16;18.25;;;6.75;;
12302;SDS011;6214;48.012;7.862;2023-01-23T03:16:45;17.65;;;6.90;;
12302;SDS011;6214;48.012;7.862;2023-01-23T03:19:17;18.20;;;7.00;;
12302;SDS011;6214;48.012;7.862;2023-01-23T03:21:45;18.15;;;7.32;;
12302;SDS011;6214;48.012;7.862;2023-01-23T03:24:12;17.98;;;7.10;;
12302;SDS011;6214;48.012;7.862;2023-01-23T03:26:40;18.38;;;7.25;;
12302;SDS011;6214;48.012;7.862;2023-01-23T03:29:16;17.80;;;7.10;;
12302;SDS011;6214;48.012;7.862;2023-01-23T03:32:04;17.17;;;6.10;;
12302;SDS011;6214;48.012;7.862;2023-01-23T03:34:32;17.37;;;6.40;;
12302;SDS011;6214;48.012;7.862;2023-01-23T03:36:59;17.60;;;6.90;;
12302;SDS011;6214;48.012;7.862;2023-01-23T03:39:26;17.80;;;6.10;;
12302;SDS011;6214;48.012;7.862;2023-01-23T03:42:11;16.40;;;5.90;;
12302;SDS011;6214;48.012;7.862;2023-01-23T03:44:39;16.90;;;5.87;;
12302;SDS011;6214;48.012;7.862;2023-01-23T03:47:06;16.50;;;5.93;;
12302;SDS011;6214;48.012;7.862;2023-01-23T03:49:32;16.40;;;5.50;;
12302;SDS011;6214;48.012;7.862;2023-01-23T03:51:59;16.30;;;5.40;;
12302;SDS011;6214;48.012;7.862;2023-01-23T03:54:27;17.30;;;5.30;;
12302;SDS011;6214;48.012;7.862;2023-01-23T03:56:54;16.53;;;5.60;;
12302;SDS011;6214;48.012;7.862;2023-01-23T03:59:21;16.30;;;5.50;;
12302;SDS011;6214;48.012;7.862;2023-01-23T04:01:48;16.10;;;5.05;;
12302;SDS011;6214;48.012;7.862;2023-01-23T04:04:15;15.80;;;5.00;;
12302;SDS011;6214;48.012;7.862;2023-01-23T04:06:42;16.20;;;4.90;;
12302;SDS011;6214;48.012;7.862;2023-01-23T04:09:09;15.83;;;5.10;;
12302;SDS011;6214;48.012;7.862;2023-01-23T04:11:36;16.30;;;5.18;;
12302;SDS011;6214;48.012;7.862;2023-01-23T04:14:03;16.80;;;5.20;;
12302;SDS011;6214;48.012;7.862;2023-01-23T04:16:30;15.40;;;4.70;;
12302;SDS011;6214;48.012;7.862;2023-01-23T04:18:57;16.40;;;5.40;;
12302;SDS011;6214;48.012;7.862;2023-01-23T04:21:23;15.70;;;4.80;;
12302;SDS011;6214;48.012;7.862;2023-01-23T04:23:50;15.43;;;4.50;;
12302;SDS011;6214;48.012;7.862;2023-01-23T04:26:17;15.30;;;4.22;;
12302;SDS011;6214;48.012;7.862;2023-01-23T04:28:44;16.38;;;5.85;;
12302;SDS011;6214;48.012;7.862;2023-01-23T04:31:11;18.55;;;7.90;;
12302;SDS011;6214;48.012;7.862;2023-01-23T04:33:38;20.27;;;9.80;;
12302;SDS011;6214;48.012;7.862;2023-01-23T04:36:05;20.05;;;9.60;;
12302;SDS011;6214;48.012;7.862;2023-01-23T04:38:33;20.90;;;11.20;;
12302;SDS011;6214;48.012;7.862;2023-01-23T04:41:00;20.83;;;11.00;;
12302;SDS011;6214;48.012;7.862;2023-01-23T04:43:28;21.48;;;10.90;;
12302;SDS011;6214;48.012;7.862;2023-01-23T04:45:55;21.20;;;11.15;;
12302;SDS011;6214;48.012;7.862;2023-01-23T04:48:23;22.30;;;11.45;;
12302;SDS011;6214;48.012;7.862;2023-01-23T04:50:50;21.30;;;11.20;;
12302;SDS011;6214;48.012;7.862;2023-01-23T04:53:17;22.58;;;12.30;;
12302;SDS011;6214;48.012;7.862;2023-01-23T04:55:46;21.50;;;11.53;;
12302;SDS011;6214;48.012;7.862;2023-01-23T04:58:14;21.88;;;11.50;;
12302;SDS011;6214;48.012;7.862;2023-01-23T05:00:43;21.40;;;10.90;;
12302;SDS011;6214;48.012;7.862;2023-01-23T05:03:11;21.60;;;11.25;;
12302;SDS011;6214;48.012;7.862;2023-01-23T05:05:38;20.60;;;10.38;;
12302;SDS011;6214;48.012;7.862;2023-01-23T05:08:05;20.80;;;10.40;;
12302;SDS011;6214;48.012;7.862;2023-01-23T05:10:32;20.10;;;9.38;;
12302;SDS011;6214;48.012;7.862;2023-01-23T05:12:59;20.70;;;10.20;;
12302;SDS011;6214;48.012;7.862;2023-01-23T05:15:26;19.98;;;9.38;;
12302;SDS011;6214;48.012;7.862;2023-01-23T05:17:55;18.60;;;8.50;;
12302;SDS011;6214;48.012;7.862;2023-01-23T05:20:22;19.80;;;9.27;;
12302;SDS011;6214;48.012;7.862;2023-01-23T05:22:49;19.63;;;8.57;;
12302;SDS011;6214;48.012;7.862;2023-01-23T05:25:20;19.60;;;8.90;;
12302;SDS011;6214;48.012;7.862;2023-01-23T05:27:49;19.40;;;9.20;;
12302;SDS011;6214;48.012;7.862;2023-01-23T05:30:17;20.13;;;8.95;;
12302;SDS011;6214;48.012;7.862;2023-01-23T05:32:47;20.30;;;9.35;;
12302;SDS011;6214;48.012;7.862;2023-01-23T05:35:15;21.05;;;10.40;;
12302;SDS011;6214;48.012;7.862;2023-01-23T05:37:42;20.30;;;10.20;;
12302;SDS011;6214;48.012;7.862;2023-01-23T05:40:09;20.20;;;9.50;;
12302;SDS011;6214;48.012;7.862;2023-01-23T05:42:38;21.25;;;10.10;;
12302;SDS011;6214;48.012;7.862;2023-01-23T05:45:05;19.70;;;9.30;;
12302;SDS011;6214;48.012;7.862;2023-01-23T05:47:32;19.17;;;8.60;;
12302;SDS011;6214;48.012;7.862;2023-01-23T05:49:59;20.42;;;9.00;;
12302;SDS011;6214;48.012;7.862;2023-01-23T05:52:26;19.60;;;9.10;;
12302;SDS011;6214;48.012;7.862;2023-01-23T05:54:53;19.20;;;8.80;;
12302;SDS011;6214;48.012;7.862;2023-01-23T05:57:21;18.77;;;7.93;;
12302;SDS011;6214;48.012;7.862;2023-01-23T05:59:47;19.30;;;8.38;;
12302;SDS011;6214;48.012;7.862;2023-01-23T06:02:14;19.50;;;8.25;;
12302;SDS011;6214;48.012;7.862;2023-01-23T06:04:42;19.10;;;8.30;;
12302;SDS011;6214;48.012;7.862;2023-01-23T06:07:11;18.92;;;8.50;;
12302;SDS011;6214;48.012;7.862;2023-01-23T06:09:39;19.20;;;8.77;;
12302;SDS011;6214;48.012;7.862;2023-01-23T06:12:07;19.00;;;8.40;;
12302;SDS011;6214;48.012;7.862;2023-01-23T06:14:34;18.80;;;8.10;;
12302;SDS011;6214;48.012;7.862;2023-01-23T06:17:01;18.60;;;8.27;;
12302;SDS011;6214;48.012;7.862;2023-01-23T06:19:29;18.50;;;7.53;;
12302;SDS011;6214;48.012;7.862;2023-01-23T06:21:56;19.15;;;8.00;;
12302;SDS011;6214;48.012;7.862;2023-01-23T06:24:23;18.10;;;7.03;;
12302;SDS011;6214;48.012;7.862;2023-01-23T06:26:50;17.23;;;6.60;;
12302;SDS011;6214;48.012;7.862;2023-01-23T06:29:17;16.13;;;5.80;;
12302;SDS011;6214;48.012;7.862;2023-01-23T06:31:43;16.20;;;5.50;;
12302;SDS011;6214;48.012;7.862;2023-01-23T06:34:12;16.45;;;5.10;;
12302;SDS011;6214;48.012;7.862;2023-01-23T06:36:40;15.60;;;4.50;;
12302;SDS011;6214;48.012;7.862;2023-01-23T06:39:07;16.00;;;5.05;;
12302;SDS011;6214;48.012;7.862;2023-01-23T06:41:39;15.80;;;4.90;;
12302;SDS011;6214;48.012;7.862;2023-01-23T06:44:08;15.50;;;4.50;;
12302;SDS011;6214;48.012;7.862;2023-01-23T06:46:35;15.50;;;4.70;;
12302;SDS011;6214;48.012;7.862;2023-01-23T06:49:04;15.23;;;3.63;;
12302;SDS011;6214;48.012;7.862;2023-01-23T06:51:32;14.47;;;3.27;;
12302;SDS011;6214;48.012;7.862;2023-01-23T06:53:59;14.32;;;3.20;;
12302;SDS011;6214;48.012;7.862;2023-01-23T06:56:26;14.47;;;3.00;;
12302;SDS011;6214;48.012;7.862;2023-01-23T06:58:53;14.07;;;3.00;;
12302;SDS011;6214;48.012;7.862;2023-01-23T07:01:20;14.23;;;2.95;;
12302;SDS011;6214;48.012;7.862;2023-01-23T07:03:54;13.90;;;2.55;;
12302;SDS011;6214;48.012;7.862;2023-01-23T07:06:21;13.75;;;2.33;;
12302;SDS011;6214;48.012;7.862;2023-01-23T07:08:51;14.40;;;3.10;;
12302;SDS011;6214;48.012;7.862;2023-01-23T07:11:18;14.27;;;2.80;;
12302;SDS011;6214;48.012;7.862;2023-01-23T07:13:44;15.48;;;3.40;;
12302;SDS011;6214;48.012;7.862;2023-01-23T07:16:11;14.65;;;3.17;;
12302;SDS011;6214;48.012;7.862;2023-01-23T07:18:38;14.70;;;3.20;;
12302;SDS011;6214;48.012;7.862;2023-01-23T07:21:05;16.57;;;4.43;;
12302;SDS011;6214;48.012;7.862;2023-01-23T07:23:35;14.63;;;3.17;;
12302;SDS011;6214;48.012;7.862;2023-01-23T07:26:03;14.25;;;3.00;;
12302;SDS011;6214;48.012;7.862;2023-01-23T07:28:37;15.20;;;3.30;;
12302;SDS011;6214;48.012;7.862;2023-01-23T07:31:05;13.80;;;2.72;;
12302;SDS011;6214;48.012;7.862;2023-01-23T07:33:39;14.07;;;2.70;;
12302;SDS011;6214;48.012;7.862;2023-01-23T07:36:06;14.25;;;3.38;;
12302;SDS011;6214;48.012;7.862;2023-01-23T07:38:34;15.38;;;4.70;;
12302;SDS011;6214;48.012;7.862;2023-01-23T07:41:01;14.68;;;2.97;;
12302;SDS011;6214;48.012;7.862;2023-01-23T07:43:28;14.60;;;3.40;;
12302;SDS011;6214;48.012;7.862;2023-01-23T07:45:57;14.60;;;3.10;;
12302;SDS011;6214;48.012;7.862;2023-01-23T07:48:25;14.82;;;3.17;;
12302;SDS011;6214;48.012;7.862;2023-01-23T07:51:00;13.88;;;2.60;;
12302;SDS011;6214;48.012;7.862;2023-01-23T07:53:28;14.15;;;3.00;;
12302;SDS011;6214;48.012;7.862;2023-01-23T07:55:58;14.38;;;3.20;;
12302;SDS011;6214;48.012;7.862;2023-01-23T07:58:25;14.00;;;2.72;;
12302;SDS011;6214;48.012;7.862;2023-01-23T08:00:51;15.20;;;4.00;;
12302;SDS011;6214;48.012;7.862;2023-01-23T08:03:18;14.55;;;3.42;;
12302;SDS011;6214;48.012;7.862;2023-01-23T08:05:49;14.20;;;2.80;;
12302;SDS011;6214;48.012;7.862;2023-01-23T08:08:16;14.40;;;2.85;;
12302;SDS011;6214;48.012;7.862;2023-01-23T08:10:43;14.50;;;3.20;;
12302;SDS011;6214;48.012;7.862;2023-01-23T08:13:10;13.98;;;2.80;;
12302;SDS011;6214;48.012;7.862;2023-01-23T08:15:37;14.23;;;2.50;;
12302;SDS011;6214;48.012;7.862;2023-01-23T08:18:04;14.13;;;2.95;;
12302;SDS011;6214;48.012;7.862;2023-01-23T08:20:31;15.70;;;2.90;;
12302;SDS011;6214;48.012;7.862;2023-01-23T08:22:58;14.30;;;3.10;;
12302;SDS011;6214;48.012;7.862;2023-01-23T08:25:27;14.55;;;3.10;;
12302;SDS011;6214;48.012;7.862;2023-01-23T08:27:54;14.10;;;2.90;;
12302;SDS011;6214;48.012;7.862;2023-01-23T08:30:22;14.35;;;3.25;;
12302;SDS011;6214;48.012;7.862;2023-01-23T08:32:49;14.20;;;3.00;;
12302;SDS011;6214;48.012;7.862;2023-01-23T08:35:16;14.30;;;3.10;;
12302;SDS011;6214;48.012;7.862;2023-01-23T08:37:43;14.35;;;3.10;;
12302;SDS011;6214;48.012;7.862;2023-01-23T08:40:10;14.60;;;3.13;;
12302;SDS011;6214;48.012;7.862;2023-01-23T08:42:37;14.40;;;3.10;;
12302;SDS011;6214;48.012;7.862;2023-01-23T08:45:04;15.20;;;3.30;;
12302;SDS011;6214;48.012;7.862;2023-01-23T08:47:32;14.43;;;3.13;;
12302;SDS011;6214;48.012;7.862;2023-01-23T08:50:02;14.75;;;3.53;;
12302;SDS011;6214;48.012;7.862;2023-01-23T08:52:33;14.10;;;2.95;;
12302;SDS011;6214;48.012;7.862;2023-01-23T08:55:00;14.40;;;3.08;;
12302;SDS011;6214;48.012;7.862;2023-01-23T08:57:28;14.60;;;3.40;;
12302;SDS011;6214;48.012;7.862;2023-01-23T08:59:55;15.10;;;3.10;;
12302;SDS011;6214;48.012;7.862;2023-01-23T09:02:22;15.27;;;3.80;;
12302;SDS011;6214;48.012;7.862;2023-01-23T09:04:49;14.98;;;3.80;;
12302;SDS011;6214;48.012;7.862;2023-01-23T09:07:16;14.77;;;3.40;;
12302;SDS011;6214;48.012;7.862;2023-01-23T09:09:43;15.15;;;3.70;;
12302;SDS011;6214;48.012;7.862;2023-01-23T09:12:10;15.05;;;3.42;;
12302;SDS011;6214;48.012;7.862;2023-01-23T09:14:37;14.55;;;3.17;;
12302;SDS011;6214;48.012;7.862;2023-01-23T09:17:04;14.32;;;3.25;;
12302;SDS011;6214;48.012;7.862;2023-01-23T09:19:32;14.43;;;3.30;;
12302;SDS011;6214;48.012;7.862;2023-01-23T09:21:59;14.90;;;3.60;;
12302;SDS011;6214;48.012;7.862;2023-01-23T09:24:26;15.30;;;3.90;;
12302;SDS011;6214;48.012;7.862;2023-01-23T09:26:53;14.60;;;3.47;;
12302;SDS011;6214;48.012;7.862;2023-01-23T09:29:22;14.52;;;3.05;;
12302;SDS011;6214;48.012;7.862;2023-01-23T09:31:49;15.10;;;3.90;;
12302;SDS011;6214;48.012;7.862;2023-01-23T09:34:16;15.30;;;3.85;;
12302;SDS011;6214;48.012;7.862;2023-01-23T09:36:43;14.80;;;3.55;;
12302;SDS011;6214;48.012;7.862;2023-01-23T09:39:11;14.80;;;3.50;;
12302;SDS011;6214;48.012;7.862;2023-01-23T09:41:38;15.95;;;4.38;;
12302;SDS011;6214;48.012;7.862;2023-01-23T09:44:24;15.63;;;3.83;;
12302;SDS011;6214;48.012;7.862;2023-01-23T09:47:09;16.60;;;3.80;;
12302;SDS011;6214;48.012;7.862;2023-01-23T09:49:54;15.18;;;3.97;;
12302;SDS011;6214;48.012;7.862;2023-01-23T09:52:27;15.30;;;4.30;;
12302;SDS011;6214;48.012;7.862;2023-01-23T09:55:21;16.40;;;4.32;;
12302;SDS011;6214;48.012;7.862;2023-01-23T09:57:58;15.70;;;4.38;;
12302;SDS011;6214;48.012;7.862;2023-01-23T10:00:29;15.90;;;4.22;;
12302;SDS011;6214;48.012;7.862;2023-01-23T10:03:02;15.98;;;4.53;;
12302;SDS011;6214;48.012;7.862;2023-01-23T10:12:10;15.48;;;4.70;;
12302;SDS011;6214;48.012;7.862;2023-01-23T10:25:28;15.70;;;4.50;;
12302;SDS011;6214;48.012;7.862;2023-01-23T10:28:21;16.33;;;4.80;;
12302;SDS011;6214;48.012;7.862;2023-01-23T10:30:55;16.10;;;5.00;;
12302;SDS011;6214;48.012;7.862;2023-01-23T10:33:40;16.20;;;5.22;;
12302;SDS011;6214;48.012;7.862;2023-01-23T10:39:20;16.00;;;4.60;;
12302;SDS011;6214;48.012;7.862;2023-01-23T10:41:52;15.88;;;4.80;;
12302;SDS011;6214;48.012;7.862;2023-01-23T10:44:27;16.15;;;4.88;;
12302;SDS011;6214;48.012;7.862;2023-01-23T10:46:58;15.60;;;4.40;;
12302;SDS011;6214;48.012;7.862;2023-01-23T10:49:35;16.10;;;4.65;;
12302;SDS011;6214;48.012;7.862;2023-01-23T10:52:27;15.75;;;3.95;;
12302;SDS011;6214;48.012;7.862;2023-01-23T10:54:58;16.10;;;5.20;;
12302;SDS011;6214;48.012;7.862;2023-01-23T10:57:28;16.23;;;5.35;;
12302;SDS011;6214;48.012;7.862;2023-01-23T11:00:09;16.70;;;5.50;;
12302;SDS011;6214;48.012;7.862;2023-01-23T11:02:50;15.38;;;3.40;;
12302;SDS011;6214;48.012;7.862;2023-01-23T11:08:29;15.30;;;3.90;;
12302;SDS011;6214;48.012;7.862;2023-01-23T11:13:46;16.50;;;5.32;;
12302;SDS011;6214;48.012;7.862;2023-01-23T11:16:21;15.95;;;4.70;;
12302;SDS011;6214;48.012;7.862;2023-01-23T11:18:53;16.27;;;5.10;;
12302;SDS011;6214;48.012;7.862;2023-01-23T11:21:26;16.10;;;5.00;;
12302;SDS011;6214;48.012;7.862;2023-01-23T11:29:29;16.30;;;5.10;;
12302;SDS011;6214;48.012;7.862;2023-01-23T11:32:09;15.82;;;4.60;;
12302;SDS011;6214;48.012;7.862;2023-01-23T11:34:43;16.60;;;5.03;;
12302;SDS011;6214;48.012;7.862;2023-01-23T11:39:55;15.60;;;4.53;;
12302;SDS011;6214;48.012;7.862;2023-01-23T11:42:29;17.13;;;5.40;;
12302;SDS011;6214;48.012;7.862;2023-01-23T11:44:59;16.40;;;5.28;;
12302;SDS011;6214;48.012;7.862;2023-01-23T11:50:35;15.90;;;5.18;;
12302;SDS011;6214;48.012;7.862;2023-01-23T11:53:33;16.25;;;5.00;;
12302;SDS011;6214;48.012;7.862;2023-01-23T12:02:14;16.98;;;5.43;;
12302;SDS011;6214;48.012;7.862;2023-01-23T12:05:21;16.20;;;5.10;;
12302;SDS011;6214;48.012;7.862;2023-01-23T12:10:46;16.50;;;5.07;;
12302;SDS011;6214;48.012;7.862;2023-01-23T12:19:01;16.05;;;5.00;;
12302;SDS011;6214;48.012;7.862;2023-01-23T12:27:42;17.45;;;5.90;;
12302;SDS011;6214;48.012;7.862;2023-01-23T12:30:17;16.60;;;5.00;;
12302;SDS011;6214;48.012;7.862;2023-01-23T12:33:00;16.60;;;5.30;;
12302;SDS011;6214;48.012;7.862;2023-01-23T12:38:35;16.50;;;4.53;;
12302;SDS011;6214;48.012;7.862;2023-01-23T12:43:57;17.15;;;5.60;;
12302;SDS011;6214;48.012;7.862;2023-01-23T12:46:34;17.05;;;5.65;;
12302;SDS011;6214;48.012;7.862;2023-01-23T12:52:00;16.83;;;5.45;;
12302;SDS011;6214;48.012;7.862;2023-01-23T12:55:18;16.90;;;5.30;;
12302;SDS011;6214;48.012;7.862;2023-01-23T12:57:24;18.75;;;6.20;;
12302;SDS011;6214;48.012;7.862;2023-01-23T13:00:44;15.63;;;3.22;;
12302;SDS011;6214;48.012;7.862;2023-01-23T13:09:04;16.50;;;5.00;;
12302;SDS011;6214;48.012;7.862;2023-01-23T13:14:21;16.20;;;4.32;;
12302;SDS011;6214;48.012;7.862;2023-01-23T13:20:21;17.00;;;6.10;;
12302;SDS011;6214;48.012;7.862;2023-01-23T13:23:27;17.13;;;5.75;;
12302;SDS011;6214;48.012;7.862;2023-01-23T13:34:53;18.55;;;6.80;;
12302;SDS011;6214;48.012;7.862;2023-01-23T13:36:55;17.67;;;5.65;;
12302;SDS011;6214;48.012;7.862;2023-01-23T13:40:08;17.55;;;4.93;;
12302;SDS011;6214;48.012;7.862;2023-01-23T13:42:49;16.95;;;5.80;;
12302;SDS011;6214;48.012;7.862;2023-01-23T13:45:21;18.60;;;6.43;;
12302;SDS011;6214;48.012;7.862;2023-01-23T13:48:16;16.50;;;4.47;;
12302;SDS011;6214;48.012;7.862;2023-01-23T13:51:32;17.80;;;6.20;;
12302;SDS011;6214;48.012;7.862;2023-01-23T13:54:14;17.98;;;6.57;;
12302;SDS011;6214;48.012;7.862;2023-01-23T13:57:19;18.10;;;6.47;;
12302;SDS011;6214;48.012;7.862;2023-01-23T14:00:00;18.00;;;6.78;;
12302;SDS011;6214;48.012;7.862;2023-01-23T14:02:42;18.63;;;7.13;;
12302;SDS011;6214;48.012;7.862;2023-01-23T14:06:08;19.17;;;6.68;;
12302;SDS011;6214;48.012;7.862;2023-01-23T14:08:51;17.13;;;5.70;;
12302;SDS011;6214;48.012;7.862;2023-01-23T14:11:36;18.10;;;5.78;;
12302;SDS011;6214;48.012;7.862;2023-01-23T14:14:17;18.02;;;6.70;;
12302;SDS011;6214;48.012;7.862;2023-01-23T14:17:19;18.10;;;6.22;;
12302;SDS011;6214;48.012;7.862;2023-01-23T14:20:03;18.38;;;6.05;;
12302;SDS011;6214;48.012;7.862;2023-01-23T14:22:52;17.90;;;6.47;;
12302;SDS011;6214;48.012;7.862;2023-01-23T14:25:20;18.20;;;6.75;;
12302;SDS011;6214;48.012;7.862;2023-01-23T14:27:48;17.90;;;6.50;;
12302;SDS011;6214;48.012;7.862;2023-01-23T14:30:26;18.13;;;6.70;;
12302;SDS011;6214;48.012;7.862;2023-01-23T14:32:55;18.20;;;6.72;;
12302;SDS011;6214;48.012;7.862;2023-01-23T14:35:26;18.38;;;6.10;;
12302;SDS011;6214;48.012;7.862;2023-01-23T14:38:03;18.85;;;7.35;;
12302;SDS011;6214;48.012;7.862;2023-01-23T14:40:32;18.45;;;7.00;;
12302;SDS011;6214;48.012;7.862;2023-01-23T14:43:19;18.15;;;7.40;;
12302;SDS011;6214;48.012;7.862;2023-01-23T14:46:35;19.42;;;6.90;;
12302;SDS011;6214;48.012;7.862;2023-01-23T14:48:50;18.80;;;7.53;;
12302;SDS011;6214;48.012;7.862;2023-01-23T14:51:30;19.52;;;7.75;;
12302;SDS011;6214;48.012;7.862;2023-01-23T14:53:58;18.70;;;7.53;;
12302;SDS011;6214;48.012;7.862;2023-01-23T14:56:47;19.20;;;7.28;;
12302;SDS011;6214;48.012;7.862;2023-01-23T14:59:18;19.40;;;7.00;;
12302;SDS011;6214;48.012;7.862;2023-01-23T15:01:56;19.40;;;7.78;;
12302;SDS011;6214;48.012;7.862;2023-01-23T15:05:05;18.88;;;7.40;;
12302;SDS011;6214;48.012;7.862;2023-01-23T15:07:32;19.52;;;8.18;;
12302;SDS011;6214;48.012;7.862;2023-01-23T15:10:01;19.30;;;7.70;;
12302;SDS011;6214;48.012;7.862;2023-01-23T15:12:30;19.23;;;7.90;;
12302;SDS011;6214;48.012;7.862;2023-01-23T15:14:57;19.25;;;7.85;;
12302;SDS011;6214;48.012;7.862;2023-01-23T15:17:27;19.98;;;8.07;;
12302;SDS011;6214;48.012;7.862;2023-01-23T15:19:54;20.40;;;7.47;;
12302;SDS011;6214;48.012;7.862;2023-01-23T15:22:25;19.93;;;8.47;;
12302;SDS011;6214;48.012;7.862;2023-01-23T15:24:54;19.40;;;7.93;;
12302;SDS011;6214;48.012;7.862;2023-01-23T15:29:50;19.95;;;7.85;;
12302;SDS011;6214;48.012;7.862;2023-01-23T15:32:23;21.30;;;8.03;;
12302;SDS011;6214;48.012;7.862;2023-01-23T15:34:52;19.03;;;6.47;;
12302;SDS011;6214;48.012;7.862;2023-01-23T15:37:23;19.33;;;7.80;;
12302;SDS011;6214;48.012;7.862;2023-01-23T15:39:52;19.33;;;6.53;;
12302;SDS011;6214;48.012;7.862;2023-01-23T15:42:23;20.95;;;8.70;;
12302;SDS011;6214;48.012;7.862;2023-01-23T15:44:58;20.90;;;8.88;;
12302;SDS011;6214;48.012;7.862;2023-01-23T15:47:29;19.05;;;7.90;;
12302;SDS011;6214;48.012;7.862;2023-01-23T15:49:57;20.35;;;8.57;;
12302;SDS011;6214;48.012;7.862;2023-01-23T15:52:28;22.40;;;9.30;;
12302;SDS011;6214;48.012;7.862;2023-01-23T15:55:01;21.52;;;9.57;;
12302;SDS011;6214;48.012;7.862;2023-01-23T15:57:29;23.53;;;10.30;;
12302;SDS011;6214;48.012;7.862;2023-01-23T15:59:56;21.20;;;9.98;;
12302;SDS011;6214;48.012;7.862;2023-01-23T16:02:23;21.80;;;10.25;;
12302;SDS011;6214;48.012;7.862;2023-01-23T16:04:57;22.30;;;10.15;;
12302;SDS011;6214;48.012;7.862;2023-01-23T16:07:38;20.55;;;7.75;;
12302;SDS011;6214;48.012;7.862;2023-01-23T16:10:14;21.15;;;9.35;;
12302;SDS011;6214;48.012;7.862;2023-01-23T16:12:45;21.83;;;9.90;;
12302;SDS011;6214;48.012;7.862;2023-01-23T16:17:42;22.77;;;10.65;;
12302;SDS011;6214;48.012;7.862;2023-01-23T16:20:13;25.13;;;11.63;;
12302;SDS011;6214;48.012;7.862;2023-01-23T16:22:42;22.50;;;10.70;;
12302;SDS011;6214;48.012;7.862;2023-01-23T16:25:53;24.83;;;11.52;;
12302;SDS011;6214;48.012;7.862;2023-01-23T16:28:10;23.50;;;11.15;;
12302;SDS011;6214;48.012;7.862;2023-01-23T16:30:38;22.90;;;10.77;;
12302;SDS011;6214;48.012;7.862;2023-01-23T16:33:05;22.05;;;9.95;;
12302;SDS011;6214;48.012;7.862;2023-01-23T16:35:32;23.10;;;10.70;;
12302;SDS011;6214;48.012;7.862;2023-01-23T16:37:59;23.20;;;11.30;;
12302;SDS011;6214;48.012;7.862;2023-01-23T16:40:27;24.63;;;11.70;;
12302;SDS011;6214;48.012;7.862;2023-01-23T16:42:56;24.53;;;11.80;;
12302;SDS011;6214;48.012;7.862;2023-01-23T16:45:24;24.15;;;11.10;;
12302;SDS011;6214;48.012;7.862;2023-01-23T16:47:53;23.98;;;11.50;;
12302;SDS011;6214;48.012;7.862;2023-01-23T16:50:22;23.27;;;10.70;;
12302;SDS011;6214;48.012;7.862;2023-01-23T16:52:59;23.83;;;11.23;;